This is the latest recevied weather packets stored in our database for station/object W9KHP-1. If no packets are shown the sender has not sent any weather packets the latest 1 day(s).
| Time | Temp. | Humidity | Pressure | Rain* | Wind** | Luminosity | Snow |
|---|---|---|---|---|---|---|---|
| 1778002636 | 16.11° C | 99% | 1011.1 hPa | 1.78 mm | 0 m/s | 102 W/m² | - |
| 1778002333 | 16.11° C | 99% | 1011.3 hPa | 0 mm | 0 m/s | 71 W/m² | - |
| 1778002030 | 16.11° C | 99% | 1011.3 hPa | 1.27 mm | 0.45 m/s, 229° | 63 W/m² | - |
| 1778001727 | 16.11° C | 99% | 1011.2 hPa | 1.27 mm | 0 m/s | 124 W/m² | - |
| 1778001427 | 16.11° C | 99% | 1011.1 hPa | 0 mm | 0 m/s | 165 W/m² | - |
| 1778001124 | 16.11° C | 99% | 1010.9 hPa | 0 mm | 0 m/s | 162 W/m² | - |
| 1778000821 | 16.11° C | 99% | 1010.9 hPa | 0 mm | 0 m/s | 140 W/m² | - |
| 1778000518 | 16.11° C | 99% | 1010.8 hPa | 1.78 mm | 0 m/s | 154 W/m² | - |
| 1778000228 | 15.56° C | 99% | 1010.9 hPa | 1.78 mm | 0 m/s | 151 W/m² | - |
| 1777999914 | 15.56° C | 99% | 1011.2 hPa | 0 mm | 0 m/s | 131 W/m² | - |
| 1777999609 | 15.56° C | 99% | 1011.3 hPa | 0 mm | 0 m/s | 124 W/m² | - |
| 1777999307 | 15.56° C | 99% | 1011.3 hPa | 1.27 mm | 0 m/s | 116 W/m² | - |
| 1777999005 | 15.56° C | 99% | 1011.5 hPa | 1.27 mm | 0 m/s | 137 W/m² | - |
| 1777998703 | 15.56° C | 99% | 1011.6 hPa | 0 mm | 0 m/s | 126 W/m² | - |
| 1777998400 | 15.56° C | 99% | 1011.8 hPa | 0 mm | 0.45 m/s, 267° | 129 W/m² | - |
| 1777998098 | 15.56° C | 99% | 1011.9 hPa | 1.78 mm | 0 m/s | 93 W/m² | - |
| 1777997794 | 15.56° C | 99% | 1012 hPa | 4.83 mm | 0 m/s | 97 W/m² | - |
| 1777997491 | 15.56° C | 98% | 1012.1 hPa | 4.83 mm | 0 m/s | 101 W/m² | - |
| 1777997189 | 15.56° C | 98% | 1012.4 hPa | 4.32 mm | 1.34 m/s, 230° | 91 W/m² | - |
| 1777996886 | 15.56° C | 97% | 1012.4 hPa | 4.83 mm | 0.45 m/s, 251° | 55 W/m² | - |
| 1777996582 | 15.56° C | 97% | 1012.2 hPa | 3.05 mm | 0.45 m/s, 302° | 54 W/m² | - |
| 1777996279 | 15.56° C | 96% | 1012.2 hPa | 4.32 mm | 0 m/s | 48 W/m² | - |
| 1777995975 | 15.56° C | 94% | 1012.1 hPa | 6.1 mm | 0 m/s | 42 W/m² | - |
| 1777995671 | 16.67° C | 91% | 1011.8 hPa | 4.83 mm | 2.68 m/s, 235° | 52 W/m² | - |
| 1777995369 | 17.22° C | 86% | 1011.9 hPa | 0 mm | 0.89 m/s, 181° | 40 W/m² | - |
* Rain latest hour (hover to see other rain measurements)
** Current wind speed in m/s (hover to see current wind gust speed)